Briefing drone pour Portes-les-valence

Rechercher une autre localisation

Conditions de vol :


Nous sommes le : Samedi 05 décembre 2020
Il est 18:01 UTC (19:01 LT)

Lever de soleil : 06:36 UTC (07:36 LT)
Coucher de soleil : 16:25 UTC (17:25 LT)

Météo

L'essentiel des conditions de vol

VIGILANCE MÉTÉO FRANCE - Drôme (26)
Pas de vigilances particulieres
METAR de LFLU
LFLU 051730Z AUTO 00000KT 5000 BR FEW009 OVC190 02/01 Q0997

Date d'émission: 05/12/2020
Heure d'émission: 17:30 UTC
Vent: Calme
Visibilité horizontale: 5000 m
Plafond :
- Peu de nuages à 900ft (274m)
- Couvert à 19000ft (5791m)
Température: 2 °C
Point de rosée: 1 °C
Humidité: 93%
Pression (QNH): 997 hPa
Conditions: Brume
Prévision 24h pour Valence (5 km)
Vent : 200° pour 3 KT (9 km/h)
Temperature Maxi: 6 °C
Temperature Min: 6 °C
Humidité : 75%
Condition : Nuageux



Warning: count(): Parameter must be an array or an object that implements Countable in /homepages/6/d509196549/htdocs/droneoxygene/briefing.php on line 743
WEBCAM POUR PORTES-LES-VALENCE

Réglementation

Voler en sécurité

CARTES AERONAUTIQUE 1/500.000
CARTES VAC (LFLU)
SUP AIP




Chargement des AIP...
NOTAM (PORTES-LES-VALENCE + Terrain à proximité / FIR )




Chargement des NOTAMS...
CONTACT PREFECTURE 26
Drôme (26) : ddt-sdsr@drome.gouv.fr


Avertissement : Les données mises à disposition sont indicatives. Oxygène Drone ne pourra être tenu responsable de dégâts causés aux biens et aux personnes.